createdAt,value
2023-05-15T00:01:23.391Z,17.00
2023-05-15T00:03:27.373Z,17.10
2023-05-15T00:05:30.939Z,17.00
2023-05-15T00:07:34.343Z,17.10
2023-05-15T00:09:37.826Z,17.00
2023-05-15T00:11:41.178Z,17.10
2023-05-15T00:13:44.608Z,17.00
2023-05-15T00:15:47.958Z,17.00
2023-05-15T00:17:53.231Z,17.00
2023-05-15T00:19:59.302Z,16.90
2023-05-15T00:22:02.778Z,16.90
2023-05-15T00:24:06.353Z,16.90
2023-05-15T00:26:09.870Z,16.90
2023-05-15T00:28:13.410Z,16.80
2023-05-15T00:30:17.110Z,16.80
2023-05-15T00:32:20.511Z,16.80
2023-05-15T00:34:26.141Z,16.60
2023-05-15T00:36:29.471Z,16.60
2023-05-15T00:38:33.680Z,16.60
2023-05-15T00:40:37.293Z,16.50
2023-05-15T00:42:40.663Z,16.50
2023-05-15T00:44:44.434Z,16.50
2023-05-15T00:46:47.989Z,16.50
2023-05-15T00:48:51.637Z,16.40
2023-05-15T00:50:57.803Z,16.40
2023-05-15T00:53:01.509Z,16.30
2023-05-15T00:55:05.281Z,16.20
2023-05-15T00:57:08.886Z,16.20
2023-05-15T00:59:12.342Z,16.10
2023-05-15T01:01:16.373Z,16.00
2023-05-15T01:03:19.880Z,15.90
2023-05-15T01:05:23.523Z,15.90
2023-05-15T01:07:28.831Z,15.80
2023-05-15T01:09:32.552Z,15.70
2023-05-15T01:11:37.180Z,15.70
2023-05-15T01:13:40.825Z,15.70
2023-05-15T01:15:45.218Z,15.60
2023-05-15T01:17:48.702Z,15.60
2023-05-15T01:19:52.786Z,15.50
2023-05-15T01:22:40.395Z,15.50
2023-05-15T01:24:55.953Z,15.50
2023-05-15T01:27:21.797Z,15.50
2023-05-15T01:29:27.817Z,15.40
2023-05-15T01:31:32.856Z,15.50
2023-05-15T01:33:37.250Z,15.40
2023-05-15T01:35:45.282Z,15.50
2023-05-15T01:37:51.261Z,15.50
2023-05-15T01:39:56.409Z,15.50
2023-05-15T01:42:03.980Z,15.50
2023-05-15T01:44:09.809Z,15.50
2023-05-15T01:46:13.751Z,15.50
2023-05-15T01:48:17.301Z,15.60
2023-05-15T01:50:20.670Z,15.60
2023-05-15T01:52:26.471Z,15.60
2023-05-15T01:54:31.116Z,15.70
2023-05-15T01:56:34.596Z,15.70
2023-05-15T01:58:38.500Z,15.60
2023-05-15T02:00:43.570Z,15.70
2023-05-15T02:02:47.251Z,15.70
2023-05-15T02:04:51.565Z,15.70
2023-05-15T02:06:55.159Z,15.60
2023-05-15T02:08:59.277Z,15.60
2023-05-15T02:11:02.847Z,15.60
2023-05-15T02:13:06.798Z,15.60
2023-05-15T02:15:15.384Z,15.60
2023-05-15T02:17:20.880Z,15.50
2023-05-15T02:19:24.265Z,15.50
2023-05-15T02:21:27.861Z,15.60
2023-05-15T02:23:31.244Z,15.50
2023-05-15T02:25:40.089Z,15.40
2023-05-15T02:27:47.618Z,15.40
2023-05-15T02:29:56.896Z,15.40
2023-05-15T02:32:04.186Z,15.40
2023-05-15T02:34:14.554Z,15.30
2023-05-15T02:36:19.834Z,15.30
2023-05-15T02:42:45.154Z,15.20
2023-05-15T02:44:48.722Z,15.20
2023-05-15T02:46:51.982Z,15.10
2023-05-15T02:48:55.691Z,15.20
2023-05-15T02:51:01.102Z,15.10
2023-05-15T02:53:05.181Z,15.10
2023-05-15T02:55:10.037Z,15.00
2023-05-15T02:57:13.801Z,15.10
2023-05-15T02:59:19.969Z,15.00
2023-05-15T03:01:23.992Z,15.00
2023-05-15T03:03:27.995Z,15.00
2023-05-15T03:05:31.674Z,15.00
2023-05-15T03:07:42.719Z,14.90
2023-05-15T03:09:46.279Z,14.90
2023-05-15T03:11:49.971Z,14.90
2023-05-15T03:13:53.549Z,14.90
2023-05-15T03:15:57.049Z,14.90
2023-05-15T03:18:00.805Z,14.90
2023-05-15T03:20:05.272Z,15.00
2023-05-15T03:22:10.337Z,14.90
2023-05-15T03:24:15.364Z,15.00
2023-05-15T03:26:18.915Z,15.00
2023-05-15T03:28:22.511Z,14.90
2023-05-15T03:30:25.895Z,15.00
2023-05-15T03:32:29.368Z,15.00
2023-05-15T03:34:32.785Z,14.90
2023-05-15T03:36:36.221Z,14.90
2023-05-15T03:38:45.200Z,14.80
2023-05-15T03:40:51.254Z,14.70
2023-05-15T03:42:55.126Z,14.60
2023-05-15T03:44:58.641Z,14.60
2023-05-15T03:47:02.233Z,14.50
2023-05-15T03:49:07.083Z,14.60
2023-05-15T03:51:10.742Z,14.50
2023-05-15T03:53:14.086Z,14.50
2023-05-15T03:55:17.805Z,14.50
2023-05-15T03:57:22.811Z,14.50
2023-05-15T03:59:26.304Z,14.50
2023-05-15T04:01:29.704Z,14.50
2023-05-15T04:03:33.595Z,14.60
2023-05-15T04:05:37.260Z,14.60
2023-05-15T04:07:40.813Z,14.60
2023-05-15T04:09:44.526Z,14.60
2023-05-15T04:11:48.119Z,14.70
2023-05-15T04:13:53.204Z,14.70
2023-05-15T04:15:58.080Z,14.80
2023-05-15T04:18:08.913Z,14.90
2023-05-15T04:20:14.336Z,15.10
2023-05-15T04:22:18.058Z,15.20
2023-05-15T04:24:21.570Z,15.30
2023-05-15T04:26:25.631Z,15.40
2023-05-15T04:28:30.515Z,15.50
2023-05-15T04:30:35.895Z,15.70
2023-05-15T04:32:40.725Z,15.80
2023-05-15T04:34:44.545Z,16.00
2023-05-15T04:36:48.190Z,16.20
2023-05-15T04:38:52.082Z,16.40
2023-05-15T04:40:56.310Z,16.50
2023-05-15T04:43:00.878Z,16.60
2023-05-15T04:45:05.781Z,16.80
2023-05-15T04:47:11.737Z,17.00
2023-05-15T04:49:15.589Z,17.10
2023-05-15T04:51:19.583Z,17.30
2023-05-15T04:53:23.578Z,17.50
2023-05-15T04:55:27.391Z,17.60
2023-05-15T04:57:31.433Z,17.70
2023-05-15T04:59:35.483Z,17.80
2023-05-15T05:01:39.403Z,17.90
2023-05-15T05:03:44.868Z,17.90
2023-05-15T05:05:48.818Z,17.90
2023-05-15T05:07:52.319Z,17.90
2023-05-15T05:09:56.084Z,18.00
2023-05-15T05:12:01.671Z,18.20
2023-05-15T05:14:05.518Z,18.30
2023-05-15T05:16:09.434Z,18.50
2023-05-15T05:18:13.184Z,18.70
2023-05-15T05:20:18.729Z,18.80
2023-05-15T05:22:22.179Z,18.80
2023-05-15T05:24:26.585Z,18.80
2023-05-15T05:26:30.312Z,19.00
2023-05-15T05:28:34.098Z,19.20
2023-05-15T05:30:37.724Z,19.30
2023-05-15T05:32:41.477Z,19.50
2023-05-15T05:34:45.511Z,19.70
2023-05-15T05:36:50.427Z,19.90
2023-05-15T05:38:53.909Z,20.10
2023-05-15T05:40:57.770Z,20.20
2023-05-15T05:43:02.149Z,20.30
2023-05-15T05:45:07.078Z,20.40
2023-05-15T05:47:10.877Z,20.60
2023-05-15T05:49:14.715Z,20.70
2023-05-15T05:51:18.258Z,20.80
2023-05-15T05:53:23.536Z,20.80
2023-05-15T05:55:27.700Z,20.90
2023-05-15T05:57:31.411Z,21.00
2023-05-15T05:59:35.123Z,21.20
2023-05-15T06:01:39.024Z,21.40
2023-05-15T06:03:44.988Z,21.60
2023-05-15T06:05:48.723Z,21.80
2023-05-15T06:07:52.593Z,21.90
2023-05-15T06:09:57.420Z,22.00
2023-05-15T06:12:04.760Z,22.20
2023-05-15T06:14:09.714Z,22.40
2023-05-15T06:16:13.108Z,22.40
2023-05-15T06:18:16.652Z,22.60
2023-05-15T06:20:21.137Z,22.70
2023-05-15T06:22:24.726Z,22.70
2023-05-15T06:24:28.795Z,22.80
2023-05-15T06:26:33.858Z,23.00
2023-05-15T06:28:37.585Z,23.10
2023-05-15T06:30:41.287Z,23.20
2023-05-15T06:32:45.151Z,23.40
2023-05-15T06:34:49.001Z,23.60
2023-05-15T06:36:52.852Z,23.80
2023-05-15T06:38:56.503Z,23.80
2023-05-15T06:41:00.550Z,23.80
2023-05-15T06:43:05.926Z,23.70
2023-05-15T06:45:10.793Z,23.60
2023-05-15T06:47:14.505Z,23.70
2023-05-15T06:49:18.427Z,23.70
2023-05-15T06:51:22.153Z,24.00
2023-05-15T06:53:26.161Z,24.20
2023-05-15T06:55:29.638Z,24.50
2023-05-15T06:57:34.700Z,24.80
2023-05-15T06:59:39.862Z,25.10
2023-05-15T07:01:43.675Z,25.40
2023-05-15T07:03:47.544Z,25.50
2023-05-15T07:05:51.344Z,25.70
2023-05-15T07:07:55.029Z,25.90
2023-05-15T07:09:59.015Z,26.10
2023-05-15T07:12:03.861Z,26.10
2023-05-15T07:14:08.099Z,26.20
2023-05-15T07:16:16.136Z,26.40
2023-05-15T07:18:20.001Z,26.60
2023-05-15T07:20:25.899Z,26.80
2023-05-15T07:22:32.775Z,26.90
2023-05-15T07:24:40.383Z,26.90
2023-05-15T07:26:57.401Z,27.00
2023-05-15T07:29:02.126Z,27.10
2023-05-15T07:31:06.048Z,27.30
2023-05-15T07:33:11.501Z,27.40
2023-05-15T07:35:15.242Z,27.40
2023-05-15T07:37:18.732Z,27.40
2023-05-15T07:39:22.590Z,27.50
2023-05-15T07:41:26.483Z,27.70
2023-05-15T07:43:30.177Z,27.80
2023-05-15T07:45:33.892Z,27.70
2023-05-15T07:47:37.760Z,27.80
2023-05-15T07:49:42.675Z,28.00
2023-05-15T07:51:46.264Z,28.20
2023-05-15T07:53:50.134Z,28.40
2023-05-15T07:55:54.110Z,28.50
2023-05-15T07:57:58.201Z,28.50
2023-05-15T08:00:05.097Z,28.50
2023-05-15T08:02:09.167Z,28.60
2023-05-15T08:04:13.874Z,28.50
2023-05-15T08:06:18.834Z,28.30
2023-05-15T08:08:22.451Z,28.10
2023-05-15T08:10:26.233Z,27.90
2023-05-15T08:12:30.009Z,27.80
2023-05-15T08:14:35.112Z,27.70
2023-05-15T08:16:39.140Z,27.60
2023-05-15T08:18:43.178Z,27.60
2023-05-15T08:20:47.171Z,27.50
2023-05-15T08:22:52.416Z,27.30
2023-05-15T08:24:56.167Z,27.30
2023-05-15T08:27:00.227Z,27.20
2023-05-15T08:29:03.838Z,27.40
2023-05-15T08:31:07.920Z,27.60
2023-05-15T08:33:12.234Z,27.80
2023-05-15T08:35:16.110Z,27.90
2023-05-15T08:37:20.174Z,27.90
2023-05-15T08:39:26.030Z,28.00
2023-05-15T08:41:40.436Z,28.10
2023-05-15T08:43:44.729Z,28.20
2023-05-15T08:45:48.737Z,28.40
2023-05-15T08:47:52.762Z,28.50
2023-05-15T08:50:00.936Z,28.70
2023-05-15T08:52:05.147Z,28.80
2023-05-15T08:54:09.675Z,28.90
2023-05-15T08:56:14.980Z,29.00
2023-05-15T08:58:20.138Z,29.00
2023-05-15T09:00:24.068Z,29.20
2023-05-15T09:02:28.006Z,29.50
2023-05-15T09:04:32.140Z,29.70
2023-05-15T09:06:36.374Z,29.90
2023-05-15T09:08:40.215Z,30.00
2023-05-15T09:10:44.171Z,30.00
2023-05-15T09:12:49.231Z,30.20
2023-05-15T09:14:53.439Z,30.50
2023-05-15T09:16:57.380Z,30.70
2023-05-15T09:19:01.220Z,31.00
2023-05-15T09:21:23.709Z,31.10
2023-05-15T09:23:28.240Z,31.30
2023-05-15T09:25:37.719Z,31.20
2023-05-15T09:27:45.888Z,31.10
2023-05-15T09:29:54.416Z,31.10
2023-05-15T09:31:58.574Z,30.80
2023-05-15T09:34:04.896Z,30.50
2023-05-15T09:36:09.127Z,29.90
2023-05-15T09:38:14.401Z,29.40
2023-05-15T09:40:21.297Z,28.90
2023-05-15T09:42:25.818Z,28.60
2023-05-15T09:44:29.537Z,28.30
2023-05-15T09:46:38.052Z,28.00
2023-05-15T09:48:41.601Z,27.70
2023-05-15T09:50:45.274Z,27.40
2023-05-15T09:52:48.673Z,27.20
2023-05-15T09:54:52.558Z,27.00
2023-05-15T09:56:56.378Z,26.90
2023-05-15T09:59:00.897Z,26.80
2023-05-15T10:01:04.789Z,26.70
2023-05-15T10:03:11.411Z,26.70
2023-05-15T10:05:15.190Z,26.70
2023-05-15T10:07:20.969Z,26.70
2023-05-15T10:09:24.742Z,26.90
2023-05-15T10:11:28.346Z,27.20
2023-05-15T10:13:33.267Z,27.50
2023-05-15T10:15:36.752Z,27.70
2023-05-15T10:17:40.819Z,27.70
2023-05-15T10:19:57.176Z,27.60
2023-05-15T10:22:01.778Z,27.50
2023-05-15T10:24:05.950Z,27.40
2023-05-15T10:26:12.705Z,27.40
2023-05-15T10:28:16.512Z,27.60
2023-05-15T10:30:20.353Z,27.90
2023-05-15T10:32:24.075Z,28.20
2023-05-15T10:34:28.088Z,28.40
2023-05-15T10:36:33.357Z,28.20
2023-05-15T10:38:36.932Z,27.90
2023-05-15T10:40:40.675Z,27.50
2023-05-15T10:42:44.746Z,27.20
2023-05-15T10:44:48.744Z,26.90
2023-05-15T10:46:52.519Z,26.80
2023-05-15T10:48:56.188Z,26.80
2023-05-15T10:51:02.330Z,26.80
2023-05-15T10:53:07.628Z,26.70
2023-05-15T10:55:15.348Z,26.70
2023-05-15T10:57:18.799Z,26.70
2023-05-15T10:59:22.285Z,26.50
2023-05-15T11:01:30.969Z,26.60
2023-05-15T11:03:48.520Z,26.60
2023-05-15T11:06:11.185Z,26.70
2023-05-15T11:08:28.659Z,26.70
2023-05-15T11:10:38.499Z,26.60
2023-05-15T11:12:57.502Z,26.40
2023-05-15T11:15:23.301Z,26.40
2023-05-15T11:17:26.920Z,26.30
2023-05-15T11:19:35.291Z,26.20
2023-05-15T11:21:46.869Z,26.30
2023-05-15T11:24:00.548Z,26.50
2023-05-15T11:26:04.394Z,26.70
2023-05-15T11:28:08.259Z,27.00
2023-05-15T11:30:15.826Z,27.10
2023-05-15T11:32:34.509Z,27.50
2023-05-15T11:34:42.695Z,27.90
2023-05-15T11:36:46.428Z,28.40
2023-05-15T11:38:51.465Z,28.80
2023-05-15T11:40:58.764Z,29.20
2023-05-15T11:43:04.450Z,29.50
2023-05-15T11:45:09.336Z,29.50
2023-05-15T11:47:13.128Z,29.50
2023-05-15T11:49:17.337Z,29.60
2023-05-15T11:51:22.169Z,29.70
2023-05-15T11:53:26.927Z,29.70
2023-05-15T11:55:32.542Z,29.50
2023-05-15T11:57:36.369Z,29.00
2023-05-15T11:59:39.866Z,28.60
2023-05-15T12:01:44.102Z,28.30
2023-05-15T12:03:49.041Z,28.20
2023-05-15T12:05:58.107Z,28.20
2023-05-15T12:08:04.130Z,28.10
2023-05-15T12:10:08.918Z,28.00
2023-05-15T12:12:16.413Z,27.90
2023-05-15T12:14:29.249Z,27.90
2023-05-15T12:16:33.278Z,28.00
2023-05-15T12:18:37.097Z,28.00
2023-05-15T12:20:45.213Z,28.00
2023-05-15T12:22:48.931Z,27.80
2023-05-15T12:24:52.864Z,27.90
2023-05-15T12:26:57.610Z,28.00
2023-05-15T12:29:02.885Z,28.00
2023-05-15T12:31:06.932Z,28.00
2023-05-15T12:33:11.594Z,28.10
2023-05-15T12:35:15.636Z,28.10
2023-05-15T12:37:21.217Z,27.90
2023-05-15T12:39:24.745Z,27.80
2023-05-15T12:41:31.433Z,27.80
2023-05-15T12:43:35.171Z,27.80
2023-05-15T12:45:42.960Z,27.60
2023-05-15T12:47:47.159Z,27.40
2023-05-15T12:49:51.219Z,27.40
2023-05-15T12:51:54.941Z,27.50
2023-05-15T12:53:59.468Z,27.40
2023-05-15T12:56:03.365Z,27.40
2023-05-15T12:58:07.943Z,27.50
2023-05-15T13:00:13.909Z,27.60
2023-05-15T13:02:21.171Z,27.60
2023-05-15T13:04:26.733Z,27.50
2023-05-15T13:06:44.895Z,27.40
2023-05-15T13:08:50.241Z,27.10
2023-05-15T13:11:00.296Z,26.70
2023-05-15T13:13:03.968Z,25.90
2023-05-15T13:15:08.923Z,25.20
2023-05-15T13:17:12.704Z,24.60
2023-05-15T13:19:18.207Z,23.60
2023-05-15T13:21:22.207Z,22.00
2023-05-15T13:23:26.598Z,20.60
2023-05-15T13:25:32.028Z,19.20
2023-05-15T13:27:36.292Z,18.10
2023-05-15T13:29:40.019Z,17.30
2023-05-15T13:31:43.822Z,16.80
2023-05-15T13:33:48.025Z,16.50
2023-05-15T13:35:53.242Z,16.30
2023-05-15T13:37:56.996Z,16.30
2023-05-15T13:40:00.564Z,16.10
2023-05-15T13:42:04.914Z,16.10
2023-05-15T13:44:08.482Z,16.10
2023-05-15T13:46:12.002Z,16.00
2023-05-15T13:48:15.906Z,16.00
2023-05-15T13:50:19.483Z,16.10
2023-05-15T13:52:24.941Z,16.30
2023-05-15T13:54:28.562Z,16.50
2023-05-15T13:56:32.469Z,16.70
2023-05-15T13:58:36.377Z,16.90
2023-05-15T14:00:40.586Z,17.30
2023-05-15T14:02:45.525Z,17.50
2023-05-15T14:04:49.399Z,17.70
2023-05-15T14:06:53.164Z,17.80
2023-05-15T14:08:58.404Z,17.80
2023-05-15T14:11:03.062Z,17.60
2023-05-15T14:13:06.676Z,17.40
2023-05-15T14:15:12.408Z,17.40
2023-05-15T14:17:16.956Z,17.40
2023-05-15T14:19:20.858Z,17.40
2023-05-15T14:21:24.410Z,17.30
2023-05-15T14:23:28.222Z,17.30
2023-05-15T14:25:33.332Z,17.10
2023-05-15T14:27:37.282Z,17.00
2023-05-15T14:29:42.331Z,16.80
2023-05-15T14:31:46.302Z,16.60
2023-05-15T14:33:52.444Z,16.60
2023-05-15T14:35:56.283Z,16.50
2023-05-15T14:38:00.238Z,16.40
2023-05-15T14:40:05.126Z,16.30
2023-05-15T14:42:10.709Z,16.20
2023-05-15T14:44:14.754Z,16.10
2023-05-15T14:46:18.873Z,16.00
2023-05-15T14:48:22.805Z,15.90
2023-05-15T14:50:27.212Z,15.90
2023-05-15T14:52:31.200Z,16.00
2023-05-15T14:54:35.825Z,16.00
2023-05-15T14:56:39.643Z,16.00
2023-05-15T14:58:44.946Z,16.10
2023-05-15T15:00:49.303Z,16.20
2023-05-15T15:02:53.291Z,16.20
2023-05-15T15:04:57.952Z,16.40
2023-05-15T15:07:04.305Z,16.50
2023-05-15T15:09:08.051Z,16.70
2023-05-15T15:11:11.766Z,16.80
2023-05-15T15:13:16.635Z,16.80
2023-05-15T15:15:22.489Z,17.00
2023-05-15T15:17:26.532Z,17.10
2023-05-15T15:19:30.481Z,17.40
2023-05-15T15:21:34.752Z,17.60
2023-05-15T15:23:38.515Z,17.90
2023-05-15T15:25:42.443Z,18.30
2023-05-15T15:27:47.280Z,18.50
2023-05-15T15:29:51.272Z,18.60
2023-05-15T15:31:57.013Z,18.70
2023-05-15T15:34:02.398Z,18.90
2023-05-15T15:36:09.264Z,19.00
2023-05-15T15:38:13.566Z,19.00
2023-05-15T15:40:18.764Z,19.10
2023-05-15T15:42:22.856Z,19.20
2023-05-15T15:44:26.476Z,19.30
2023-05-15T15:46:30.896Z,19.40
2023-05-15T15:48:35.976Z,19.50
2023-05-15T15:50:40.141Z,19.70
2023-05-15T15:52:44.087Z,19.80
2023-05-15T15:54:48.849Z,19.90
2023-05-15T15:56:53.249Z,20.10
2023-05-15T15:58:56.824Z,20.30
2023-05-15T16:01:01.510Z,20.50
2023-05-15T16:03:05.420Z,20.70
2023-05-15T16:05:11.723Z,20.90
2023-05-15T16:07:15.909Z,21.10
2023-05-15T16:09:20.456Z,21.30
2023-05-15T16:11:25.536Z,21.40
2023-05-15T16:13:29.605Z,21.40
2023-05-15T16:15:33.525Z,21.50
2023-05-15T16:17:39.183Z,21.50
2023-05-15T16:19:43.311Z,21.40
2023-05-15T16:21:49.267Z,21.40
2023-05-15T16:23:53.814Z,21.40
2023-05-15T16:26:36.913Z,21.40
2023-05-15T16:28:56.372Z,21.40
2023-05-15T16:31:11.803Z,21.40
2023-05-15T16:33:15.448Z,21.40
2023-05-15T16:35:20.927Z,21.40
2023-05-15T16:37:26.059Z,21.40
2023-05-15T16:39:29.954Z,21.40
2023-05-15T16:41:33.673Z,21.30
2023-05-15T16:43:38.328Z,21.30
2023-05-15T16:45:41.888Z,21.30
2023-05-15T16:47:46.055Z,21.20
2023-05-15T16:49:50.541Z,21.10
2023-05-15T16:51:54.850Z,21.10
2023-05-15T16:53:59.911Z,21.00
2023-05-15T16:56:03.297Z,20.90
2023-05-15T16:58:06.643Z,21.00
2023-05-15T17:00:11.886Z,21.00
2023-05-15T17:02:15.695Z,21.00
2023-05-15T17:04:19.339Z,21.10
2023-05-15T17:06:23.301Z,21.10
2023-05-15T17:08:26.933Z,21.10
2023-05-15T17:10:32.026Z,21.20
2023-05-15T17:12:35.557Z,21.40
2023-05-15T17:14:39.099Z,21.60
2023-05-15T17:16:43.002Z,21.70
2023-05-15T17:18:46.734Z,21.70
2023-05-15T17:20:51.428Z,21.70
2023-05-15T17:22:54.872Z,22.00
2023-05-15T17:24:58.521Z,22.40
2023-05-15T17:27:03.598Z,22.90
2023-05-15T17:29:07.190Z,23.30
2023-05-15T17:31:11.441Z,23.50
2023-05-15T17:33:15.303Z,23.70
2023-05-15T17:35:19.110Z,24.00
2023-05-15T17:37:22.930Z,24.00
2023-05-15T17:39:27.535Z,24.20
2023-05-15T17:41:31.269Z,24.00
2023-05-15T17:43:36.591Z,23.90
2023-05-15T17:45:40.194Z,23.70
2023-05-15T17:47:43.771Z,23.50
2023-05-15T17:49:48.060Z,23.20
2023-05-15T17:51:52.082Z,22.90
2023-05-15T17:53:55.957Z,22.70
2023-05-15T17:55:59.663Z,22.50
2023-05-15T17:58:03.225Z,22.30
2023-05-15T18:00:10.278Z,22.10
2023-05-15T18:02:13.957Z,21.80
2023-05-15T18:04:17.969Z,21.70
2023-05-15T18:06:21.521Z,21.50
2023-05-15T18:08:25.525Z,21.40
2023-05-15T18:10:29.629Z,21.20
2023-05-15T18:12:33.036Z,21.00
2023-05-15T18:14:37.468Z,20.90
2023-05-15T18:16:43.739Z,20.80
2023-05-15T18:18:48.932Z,20.80
2023-05-15T18:20:53.041Z,20.80
2023-05-15T18:22:56.669Z,20.70
2023-05-15T18:25:01.097Z,20.60
2023-05-15T18:27:04.992Z,20.50
2023-05-15T18:29:09.358Z,20.50
2023-05-15T18:31:13.521Z,20.40
2023-05-15T18:33:18.928Z,20.30
2023-05-15T18:35:23.078Z,20.20
2023-05-15T18:37:27.373Z,20.20
2023-05-15T18:39:31.255Z,20.10
2023-05-15T18:41:35.252Z,20.10
2023-05-15T18:43:38.926Z,20.10
2023-05-15T18:45:42.685Z,20.20
2023-05-15T18:47:46.466Z,20.20
2023-05-15T18:49:51.568Z,20.10
2023-05-15T18:51:55.603Z,20.10
2023-05-15T18:53:59.402Z,20.00
2023-05-15T18:56:03.055Z,20.00
2023-05-15T18:58:06.969Z,20.00
2023-05-15T19:00:14.132Z,20.00
2023-05-15T19:02:19.169Z,20.00
2023-05-15T19:04:23.223Z,20.10
2023-05-15T19:06:28.427Z,20.00
2023-05-15T19:08:32.066Z,20.00
2023-05-15T19:10:36.044Z,20.00
2023-05-15T19:12:39.709Z,20.00
2023-05-15T19:14:46.814Z,20.00
2023-05-15T19:16:50.497Z,19.90
2023-05-15T19:18:54.220Z,19.80
2023-05-15T19:20:58.212Z,19.80
2023-05-15T19:23:03.279Z,19.80
2023-05-15T19:25:07.878Z,19.80
2023-05-15T19:27:11.602Z,19.80
2023-05-15T19:29:15.216Z,19.80
2023-05-15T19:31:30.779Z,19.80
2023-05-15T19:33:35.909Z,19.80
2023-05-15T19:35:39.516Z,19.80
2023-05-15T19:37:43.199Z,19.80
2023-05-15T19:39:48.534Z,19.90
2023-05-15T19:41:52.428Z,19.90
2023-05-15T19:43:56.174Z,19.90
2023-05-15T19:45:59.898Z,19.90
2023-05-15T19:48:03.872Z,20.00
2023-05-15T19:50:09.491Z,20.00
2023-05-15T19:52:13.212Z,20.00
2023-05-15T19:54:17.372Z,20.00
2023-05-15T19:56:23.183Z,20.00
2023-05-15T19:58:26.699Z,20.00
2023-05-15T20:00:30.941Z,20.00
2023-05-15T20:02:34.616Z,19.90
2023-05-15T20:04:38.289Z,19.90
2023-05-15T20:06:42.217Z,19.90
2023-05-15T20:08:45.726Z,19.90
2023-05-15T20:10:52.827Z,19.80
2023-05-15T20:12:57.811Z,19.80
2023-05-15T20:15:01.341Z,19.80
2023-05-15T20:17:04.987Z,19.70
2023-05-15T20:19:08.608Z,19.70
2023-05-15T20:21:12.577Z,19.70
2023-05-15T20:23:16.262Z,19.60
2023-05-15T20:25:20.089Z,19.50
2023-05-15T20:27:24.765Z,19.50
2023-05-15T20:29:29.601Z,19.30
2023-05-15T20:31:33.869Z,19.20
2023-05-15T20:33:37.970Z,19.10
2023-05-15T20:35:42.770Z,19.10
2023-05-15T20:37:46.900Z,19.10
2023-05-15T20:39:50.631Z,19.00
2023-05-15T20:41:54.466Z,19.00
2023-05-15T20:43:57.870Z,18.90
2023-05-15T20:46:02.895Z,18.90
2023-05-15T20:48:08.688Z,18.90
2023-05-15T20:50:12.899Z,18.80
2023-05-15T20:52:16.511Z,18.70
2023-05-15T20:54:20.050Z,18.70
2023-05-15T20:56:23.616Z,18.60
2023-05-15T20:58:27.160Z,18.60
2023-05-15T21:00:31.204Z,18.60
2023-05-15T21:02:36.788Z,18.50
2023-05-15T21:04:40.576Z,18.50
2023-05-15T21:06:43.978Z,18.40
2023-05-15T21:08:47.491Z,18.40
2023-05-15T21:10:55.471Z,18.30
2023-05-15T21:13:00.081Z,18.20
2023-05-15T21:15:08.267Z,18.10
2023-05-15T21:17:27.830Z,18.10
2023-05-15T21:19:32.964Z,18.00
2023-05-15T21:21:36.904Z,18.00
2023-05-15T21:23:40.226Z,18.00
2023-05-15T21:25:44.242Z,18.00
2023-05-15T21:27:48.605Z,18.00
2023-05-15T21:29:52.327Z,17.90
2023-05-15T21:31:56.259Z,17.90
2023-05-15T21:33:59.704Z,17.90
2023-05-15T21:36:04.607Z,17.80
2023-05-15T21:38:08.037Z,17.80
2023-05-15T21:40:14.107Z,17.70
2023-05-15T21:42:19.084Z,17.70
2023-05-15T21:44:22.790Z,17.60
2023-05-15T21:46:26.291Z,17.60
2023-05-15T21:48:29.754Z,17.60
2023-05-15T21:50:33.293Z,17.50
2023-05-15T21:52:37.999Z,17.50
2023-05-15T21:54:43.913Z,17.40
2023-05-15T21:56:47.539Z,17.40
2023-05-15T21:58:51.132Z,17.30
2023-05-15T22:00:54.481Z,17.30
2023-05-15T22:02:57.952Z,17.30
2023-05-15T22:05:01.836Z,17.30
2023-05-15T22:07:05.604Z,17.30
2023-05-15T22:09:10.663Z,17.30
2023-05-15T22:11:14.067Z,17.30
2023-05-15T22:13:17.522Z,17.30
2023-05-15T22:15:21.278Z,17.40
2023-05-15T22:17:27.462Z,17.40
2023-05-15T22:19:33.439Z,17.40
2023-05-15T22:21:37.132Z,17.40
2023-05-15T22:23:40.810Z,17.40
2023-05-15T22:25:46.146Z,17.40
2023-05-15T22:27:49.849Z,17.30
2023-05-15T22:29:53.401Z,17.30
2023-05-15T22:31:57.497Z,17.30
2023-05-15T22:34:01.023Z,17.30
2023-05-15T22:36:04.857Z,17.20
2023-05-15T22:38:08.326Z,17.10
2023-05-15T22:40:13.224Z,17.10
2023-05-15T22:42:18.637Z,17.10
2023-05-15T22:44:22.503Z,17.00
2023-05-15T22:46:26.821Z,17.10
2023-05-15T22:48:31.364Z,17.10
2023-05-15T22:50:34.826Z,17.00
2023-05-15T22:52:41.811Z,17.00
2023-05-15T22:54:45.428Z,17.00
2023-05-15T22:56:49.145Z,16.90
2023-05-15T22:58:54.219Z,16.90
2023-05-15T23:00:57.766Z,16.90
2023-05-15T23:03:01.628Z,16.90
2023-05-15T23:05:05.800Z,16.90
2023-05-15T23:07:09.501Z,17.00
2023-05-15T23:09:13.358Z,16.90
2023-05-15T23:11:16.691Z,16.90
2023-05-15T23:13:20.115Z,16.90
2023-05-15T23:15:24.979Z,16.90
2023-05-15T23:17:28.547Z,16.90
2023-05-15T23:19:32.371Z,16.90
2023-05-15T23:21:35.782Z,16.90
2023-05-15T23:23:39.283Z,16.90
2023-05-15T23:25:43.119Z,16.90
2023-05-15T23:27:46.762Z,16.90
2023-05-15T23:29:50.321Z,16.90
2023-05-15T23:31:57.129Z,16.90
2023-05-15T23:34:00.583Z,16.90
2023-05-15T23:36:04.749Z,16.90
2023-05-15T23:38:08.305Z,16.90
2023-05-15T23:40:13.376Z,16.80
2023-05-15T23:42:17.209Z,16.80
2023-05-15T23:44:20.979Z,16.80
2023-05-15T23:46:24.588Z,16.80
2023-05-15T23:48:31.780Z,16.70
2023-05-15T23:50:35.442Z,16.80
2023-05-15T23:52:39.067Z,16.70
2023-05-15T23:54:42.513Z,16.80
2023-05-15T23:56:46.751Z,16.70
2023-05-15T23:58:50.368Z,16.70
